EXS84H LEVC-EGGW
Flight info
| Callsign | EXS84H |
|---|---|
| Flight time | 1h 48m |
| Altitude | 34000 |
| Route | SOPET N608 MATEX Z475 OSLAP Y90 USKAR N863 GIROM DCT AGN DCT SECHE DCT UVELI DCT CNA DCT TUPAR UN861 DIKRO UM185 DESNA/N0420F240 M185 TELTU |
| Aircraft | B738/M-SDE2E3FGHIRWXY/LB1 |
Departure
| Time | 2026-05-07 11:18 |
|---|---|
| Airport | Valencia Airport (LEVC) |
Arrival
| Time | 2026-05-07 13:06 |
|---|---|
| Airport | London Luton Airport (EGGW) |
| Time | Latitude | Longitude | Altitude | Speed | Heading |
|---|---|---|---|---|---|
| 2026-05-07 10:47 | 39.49119 | -0.47543 | 208 ft | 0 kts | 45° |
| 2026-05-07 11:11 | 39.49116 | -0.47547 | 208 ft | 4 kts | 44° |
| 2026-05-07 11:11 | 39.49096 | -0.47569 | 214 ft | 4 kts | 31° |
| 2026-05-07 11:11 | 39.49071 | -0.47583 | 212 ft | 4 kts | 11° |
| 2026-05-07 11:12 | 39.49047 | -0.47583 | 210 ft | 4 kts | 333° |
| 2026-05-07 11:12 | 39.49034 | -0.47568 | 217 ft | 0 kts | 296° |
| 2026-05-07 11:14 | 39.49034 | -0.47569 | 217 ft | 1 kts | 296° |
| 2026-05-07 11:14 | 39.49060 | -0.47655 | 211 ft | 15 kts | 274° |
| 2026-05-07 11:14 | 39.49038 | -0.47787 | 211 ft | 15 kts | 256° |
| 2026-05-07 11:15 | 39.49042 | -0.47911 | 214 ft | 14 kts | 303° |
| 2026-05-07 11:15 | 39.49081 | -0.47989 | 213 ft | 23 kts | 288° |
| 2026-05-07 11:15 | 39.49232 | -0.48426 | 211 ft | 84 kts | 296° |
| 2026-05-07 11:15 | 39.49431 | -0.48926 | 211 ft | 6 kts | 292° |
| 2026-05-07 11:16 | 39.49510 | -0.49146 | 214 ft | 34 kts | 295° |
| 2026-05-07 11:16 | 39.49641 | -0.49499 | 214 ft | 75 kts | 296° |
| 2026-05-07 11:16 | 39.49795 | -0.49906 | 210 ft | 22 kts | 291° |
| 2026-05-07 11:16 | 39.49731 | -0.49997 | 212 ft | 13 kts | 207° |
| 2026-05-07 11:17 | 39.49661 | -0.50035 | 214 ft | 7 kts | 181° |
| 2026-05-07 11:17 | 39.49651 | -0.50031 | 215 ft | 0 kts | 153° |
| 2026-05-07 11:17 | 39.49648 | -0.50028 | 214 ft | 5 kts | 153° |
| 2026-05-07 11:17 | 39.49611 | -0.49949 | 217 ft | 15 kts | 116° |
| 2026-05-07 11:18 | 39.49475 | -0.49591 | 209 ft | 79 kts | 115° |
| 2026-05-07 11:18 | 39.49136 | -0.48694 | 212 ft | 140 kts | 116° |
| 2026-05-07 11:18 | 39.48671 | -0.47468 | 630 ft | 158 kts | 114° |
| 2026-05-07 11:18 | 39.48165 | -0.46160 | 1268 ft | 171 kts | 116° |
| 2026-05-07 11:19 | 39.47611 | -0.44725 | 1935 ft | 181 kts | 116° |
| 2026-05-07 11:19 | 39.46920 | -0.43295 | 2476 ft | 198 kts | 137° |
| 2026-05-07 11:19 | 39.45634 | -0.42442 | 2759 ft | 221 kts | 156° |
| 2026-05-07 11:19 | 39.44326 | -0.41251 | 2957 ft | 247 kts | 123° |
| 2026-05-07 11:20 | 39.43519 | -0.39257 | 3670 ft | 254 kts | 117° |
| 2026-05-07 11:20 | 39.42633 | -0.37241 | 4455 ft | 259 kts | 121° |
| 2026-05-07 11:20 | 39.41663 | -0.35247 | 5237 ft | 265 kts | 123° |
| 2026-05-07 11:20 | 39.40650 | -0.33247 | 6007 ft | 271 kts | 124° |
| 2026-05-07 11:21 | 39.39698 | -0.31127 | 6752 ft | 277 kts | 108° |
| 2026-05-07 11:21 | 39.39633 | -0.28637 | 7461 ft | 283 kts | 73° |
| 2026-05-07 11:21 | 39.40651 | -0.26451 | 8111 ft | 291 kts | 40° |
| 2026-05-07 11:21 | 39.42400 | -0.25177 | 8911 ft | 289 kts | 14° |
| 2026-05-07 11:22 | 39.44386 | -0.24833 | 9689 ft | 290 kts | 1° |
| 2026-05-07 11:22 | 39.46424 | -0.24662 | 10332 ft | 299 kts | 2° |
| 2026-05-07 11:22 | 39.48580 | -0.24418 | 10530 ft | 323 kts | 4° |
| 2026-05-07 11:22 | 39.50872 | -0.24077 | 10716 ft | 345 kts | 5° |
| 2026-05-07 11:23 | 39.53327 | -0.23644 | 10920 ft | 366 kts | 6° |
| 2026-05-07 11:23 | 39.55891 | -0.23146 | 11419 ft | 375 kts | 7° |
| 2026-05-07 11:23 | 39.58484 | -0.22618 | 12103 ft | 378 kts | 7° |
| 2026-05-07 11:23 | 39.61093 | -0.22081 | 12828 ft | 381 kts | 7° |
| 2026-05-07 11:24 | 39.63728 | -0.21540 | 13486 ft | 386 kts | 7° |
| 2026-05-07 11:24 | 39.66377 | -0.20838 | 14080 ft | 393 kts | 17° |
| 2026-05-07 11:24 | 39.68781 | -0.19167 | 14618 ft | 403 kts | 38° |
| 2026-05-07 11:24 | 39.70842 | -0.16661 | 15228 ft | 407 kts | 44° |
| 2026-05-07 11:25 | 39.72854 | -0.14037 | 15777 ft | 412 kts | 44° |
| 2026-05-07 11:25 | 39.74890 | -0.11375 | 16313 ft | 417 kts | 44° |
| 2026-05-07 11:25 | 39.76933 | -0.08734 | 16853 ft | 421 kts | 44° |
| 2026-05-07 11:25 | 39.79034 | -0.06051 | 17390 ft | 426 kts | 43° |
| 2026-05-07 11:26 | 39.81172 | -0.03333 | 17919 ft | 430 kts | 43° |
| 2026-05-07 11:26 | 39.83464 | -0.00817 | 18401 ft | 433 kts | 30° |
| 2026-05-07 11:26 | 39.86225 | 0.00730 | 18862 ft | 432 kts | 14° |
| 2026-05-07 11:26 | 39.89093 | 0.01783 | 19402 ft | 433 kts | 12° |
| 2026-05-07 11:27 | 39.92026 | 0.02813 | 19875 ft | 437 kts | 12° |
| 2026-05-07 11:27 | 39.94979 | 0.03854 | 20331 ft | 441 kts | 12° |
| 2026-05-07 11:27 | 39.97954 | 0.04922 | 20808 ft | 444 kts | 12° |
| 2026-05-07 11:27 | 40.00904 | 0.06001 | 21268 ft | 447 kts | 13° |
| 2026-05-07 11:28 | 40.03914 | 0.07115 | 21711 ft | 450 kts | 13° |
| 2026-05-07 11:28 | 40.06945 | 0.08247 | 22157 ft | 454 kts | 13° |
| 2026-05-07 11:28 | 40.09992 | 0.09386 | 22594 ft | 457 kts | 13° |
| 2026-05-07 11:28 | 40.12030 | 0.10149 | 22886 ft | 459 kts | 12° |
| 2026-05-07 11:29 | 40.15105 | 0.11301 | 23301 ft | 462 kts | 12° |
| 2026-05-07 11:29 | 40.19232 | 0.12848 | 23789 ft | 467 kts | 12° |
| 2026-05-07 11:29 | 40.21309 | 0.13626 | 24016 ft | 469 kts | 12° |
| 2026-05-07 11:29 | 40.24455 | 0.14804 | 24337 ft | 472 kts | 12° |
| 2026-05-07 11:30 | 40.28700 | 0.16387 | 24767 ft | 476 kts | 12° |
| 2026-05-07 11:30 | 40.30822 | 0.17177 | 24978 ft | 478 kts | 12° |
| 2026-05-07 11:30 | 40.34035 | 0.18375 | 25297 ft | 480 kts | 12° |
| 2026-05-07 11:30 | 40.37265 | 0.19582 | 25594 ft | 483 kts | 12° |
| 2026-05-07 11:31 | 40.40471 | 0.20773 | 25884 ft | 485 kts | 12° |
| 2026-05-07 11:31 | 40.43742 | 0.21995 | 26196 ft | 488 kts | 12° |
| 2026-05-07 11:31 | 40.47021 | 0.23231 | 26493 ft | 490 kts | 12° |
| 2026-05-07 11:31 | 40.50315 | 0.24473 | 26778 ft | 493 kts | 12° |
| 2026-05-07 11:32 | 40.56903 | 0.27210 | 27309 ft | 502 kts | 21° |
| 2026-05-07 11:32 | 40.60048 | 0.29258 | 27589 ft | 506 kts | 25° |
| 2026-05-07 11:32 | 40.63132 | 0.31428 | 27855 ft | 509 kts | 26° |
| 2026-05-07 11:33 | 40.66263 | 0.33671 | 28107 ft | 511 kts | 26° |
| 2026-05-07 11:33 | 40.69389 | 0.35905 | 28451 ft | 511 kts | 26° |
| 2026-05-07 11:33 | 40.72518 | 0.38119 | 28847 ft | 510 kts | 25° |
| 2026-05-07 11:33 | 40.75654 | 0.40317 | 29241 ft | 509 kts | 25° |
| 2026-05-07 11:34 | 40.78757 | 0.42479 | 29642 ft | 508 kts | 25° |
| 2026-05-07 11:34 | 40.81878 | 0.44647 | 30015 ft | 508 kts | 25° |
| 2026-05-07 11:34 | 40.85010 | 0.46823 | 30327 ft | 507 kts | 25° |
| 2026-05-07 11:34 | 40.88137 | 0.49000 | 30651 ft | 507 kts | 25° |
| 2026-05-07 11:35 | 40.91255 | 0.51173 | 30943 ft | 506 kts | 25° |
| 2026-05-07 11:35 | 40.94378 | 0.53355 | 31244 ft | 506 kts | 25° |
| 2026-05-07 11:35 | 40.97456 | 0.55508 | 31539 ft | 506 kts | 25° |
| 2026-05-07 11:35 | 41.00569 | 0.57688 | 31804 ft | 506 kts | 25° |
| 2026-05-07 11:36 | 41.03689 | 0.59875 | 32071 ft | 506 kts | 25° |
| 2026-05-07 11:36 | 41.06801 | 0.62059 | 32373 ft | 506 kts | 25° |
| 2026-05-07 11:36 | 41.09907 | 0.64241 | 32688 ft | 505 kts | 25° |
| 2026-05-07 11:36 | 41.13032 | 0.66376 | 32973 ft | 503 kts | 21° |
| 2026-05-07 11:37 | 41.16286 | 0.68025 | 33200 ft | 499 kts | 13° |
| 2026-05-07 11:37 | 41.19621 | 0.69340 | 33462 ft | 498 kts | 12° |
| 2026-05-07 11:37 | 41.22958 | 0.70584 | 33735 ft | 498 kts | 11° |
| 2026-05-07 11:37 | 41.26299 | 0.71818 | 33998 ft | 497 kts | 11° |
| 2026-05-07 11:38 | 41.29650 | 0.73070 | 33970 ft | 500 kts | 12° |
| 2026-05-07 11:38 | 41.36278 | 0.75614 | 33973 ft | 496 kts | 12° |
| 2026-05-07 11:39 | 41.42891 | 0.78206 | 33971 ft | 492 kts | 12° |
| 2026-05-07 11:39 | 41.49397 | 0.80768 | 33985 ft | 489 kts | 12° |
| 2026-05-07 11:40 | 41.55939 | 0.83345 | 33981 ft | 488 kts | 12° |
| 2026-05-07 11:40 | 41.62481 | 0.85925 | 33986 ft | 489 kts | 12° |
| 2026-05-07 11:41 | 41.68993 | 0.88497 | 33985 ft | 491 kts | 13° |
| 2026-05-07 11:41 | 41.75571 | 0.91102 | 33984 ft | 494 kts | 13° |
| 2026-05-07 11:42 | 41.82143 | 0.93711 | 33972 ft | 496 kts | 13° |
| 2026-05-07 11:42 | 41.88779 | 0.96351 | 33976 ft | 497 kts | 13° |
| 2026-05-07 11:43 | 41.95428 | 0.99002 | 33962 ft | 498 kts | 13° |
| 2026-05-07 11:43 | 42.02038 | 1.01640 | 33970 ft | 497 kts | 13° |
| 2026-05-07 11:44 | 42.08679 | 1.04303 | 33967 ft | 496 kts | 13° |
| 2026-05-07 11:44 | 42.15342 | 1.06271 | 33967 ft | 488 kts | 0° |
| 2026-05-07 11:45 | 42.22063 | 1.05931 | 33970 ft | 480 kts | 350° |
| 2026-05-07 11:45 | 42.28725 | 1.05063 | 33979 ft | 480 kts | 350° |
| 2026-05-07 11:46 | 42.35354 | 1.04292 | 33980 ft | 479 kts | 351° |
| 2026-05-07 11:46 | 42.42003 | 1.03566 | 33982 ft | 478 kts | 351° |
| 2026-05-07 11:47 | 42.48633 | 1.02842 | 33984 ft | 477 kts | 351° |
| 2026-05-07 11:47 | 42.55202 | 1.02136 | 33952 ft | 475 kts | 351° |
| 2026-05-07 11:48 | 42.61813 | 1.01414 | 33961 ft | 475 kts | 351° |
| 2026-05-07 11:48 | 42.68400 | 1.00699 | 33971 ft | 474 kts | 351° |
| 2026-05-07 11:49 | 42.74967 | 0.99977 | 33974 ft | 476 kts | 352° |
| 2026-05-07 11:49 | 42.81596 | 0.99377 | 34016 ft | 477 kts | 354° |
| 2026-05-07 11:50 | 42.88207 | 0.98728 | 33966 ft | 478 kts | 351° |
| 2026-05-07 11:50 | 42.94840 | 0.97872 | 33986 ft | 478 kts | 351° |
| 2026-05-07 11:51 | 43.01485 | 0.97070 | 33985 ft | 479 kts | 352° |
| 2026-05-07 11:51 | 43.08122 | 0.96325 | 33981 ft | 478 kts | 352° |
| 2026-05-07 11:52 | 43.14710 | 0.95601 | 33988 ft | 478 kts | 352° |
| 2026-05-07 11:52 | 43.21352 | 0.94869 | 33988 ft | 478 kts | 352° |
| 2026-05-07 11:53 | 43.27978 | 0.94134 | 33995 ft | 477 kts | 352° |
| 2026-05-07 11:53 | 43.34609 | 0.93396 | 33989 ft | 477 kts | 352° |
| 2026-05-07 11:54 | 43.41199 | 0.92660 | 33994 ft | 476 kts | 352° |
| 2026-05-07 11:54 | 43.47810 | 0.91921 | 33990 ft | 476 kts | 352° |
| 2026-05-07 11:55 | 43.54417 | 0.91181 | 33998 ft | 475 kts | 352° |
| 2026-05-07 11:55 | 43.60973 | 0.90444 | 33990 ft | 474 kts | 352° |
| 2026-05-07 11:56 | 43.67555 | 0.89703 | 33993 ft | 474 kts | 352° |
| 2026-05-07 11:56 | 43.74134 | 0.88961 | 33999 ft | 473 kts | 352° |
| 2026-05-07 11:57 | 43.80697 | 0.88219 | 34001 ft | 472 kts | 352° |
| 2026-05-07 11:57 | 43.87205 | 0.87363 | 33984 ft | 470 kts | 346° |
| 2026-05-07 11:58 | 43.93346 | 0.84590 | 34020 ft | 462 kts | 332° |
| 2026-05-07 11:58 | 43.99153 | 0.80750 | 34003 ft | 462 kts | 330° |
| 2026-05-07 11:59 | 44.04969 | 0.76894 | 34015 ft | 463 kts | 331° |
| 2026-05-07 11:59 | 44.10789 | 0.73098 | 34020 ft | 464 kts | 331° |
| 2026-05-07 12:00 | 44.16693 | 0.69266 | 34029 ft | 471 kts | 332° |
| 2026-05-07 12:00 | 44.22678 | 0.65377 | 34030 ft | 476 kts | 332° |
| 2026-05-07 12:01 | 44.28660 | 0.61478 | 34016 ft | 478 kts | 332° |
| 2026-05-07 12:01 | 44.34676 | 0.57549 | 34015 ft | 475 kts | 332° |
| 2026-05-07 12:02 | 44.40666 | 0.53625 | 34015 ft | 474 kts | 331° |
| 2026-05-07 12:02 | 44.46614 | 0.49714 | 34017 ft | 473 kts | 331° |
| 2026-05-07 12:03 | 44.52549 | 0.45779 | 34010 ft | 473 kts | 331° |
| 2026-05-07 12:03 | 44.58510 | 0.41812 | 34026 ft | 473 kts | 331° |
| 2026-05-07 12:04 | 44.64467 | 0.37841 | 34031 ft | 474 kts | 331° |
| 2026-05-07 12:04 | 44.70424 | 0.33863 | 34026 ft | 474 kts | 331° |
| 2026-05-07 12:05 | 44.76359 | 0.29891 | 34016 ft | 475 kts | 331° |
| 2026-05-07 12:05 | 44.82326 | 0.25888 | 34020 ft | 475 kts | 331° |
| 2026-05-07 12:06 | 44.88313 | 0.21863 | 34023 ft | 475 kts | 330° |
| 2026-05-07 12:06 | 44.94280 | 0.17841 | 34021 ft | 475 kts | 330° |
| 2026-05-07 12:07 | 45.00223 | 0.13827 | 34018 ft | 475 kts | 330° |
| 2026-05-07 12:07 | 45.06204 | 0.09778 | 34012 ft | 476 kts | 330° |
| 2026-05-07 12:08 | 45.12165 | 0.05738 | 34012 ft | 475 kts | 330° |
| 2026-05-07 12:08 | 45.18104 | 0.01702 | 34014 ft | 476 kts | 330° |
| 2026-05-07 12:09 | 45.24082 | -0.02370 | 34009 ft | 475 kts | 330° |
| 2026-05-07 12:09 | 45.30062 | -0.06453 | 34018 ft | 475 kts | 330° |
| 2026-05-07 12:10 | 45.35986 | -0.10508 | 34013 ft | 475 kts | 330° |
| 2026-05-07 12:10 | 45.41949 | -0.14598 | 34015 ft | 475 kts | 330° |
| 2026-05-07 12:11 | 45.47918 | -0.18703 | 33995 ft | 475 kts | 330° |
| 2026-05-07 12:11 | 45.53875 | -0.22810 | 34011 ft | 475 kts | 330° |
| 2026-05-07 12:12 | 45.59793 | -0.26899 | 33995 ft | 475 kts | 330° |
| 2026-05-07 12:12 | 45.65759 | -0.31008 | 33992 ft | 475 kts | 332° |
| 2026-05-07 12:13 | 45.70953 | -0.33692 | 34002 ft | 479 kts | 339° |
| 2026-05-07 12:13 | 45.77355 | -0.36456 | 33999 ft | 480 kts | 340° |
| 2026-05-07 12:14 | 45.83746 | -0.39227 | 33999 ft | 479 kts | 339° |
| 2026-05-07 12:14 | 45.90091 | -0.42072 | 34001 ft | 479 kts | 339° |
| 2026-05-07 12:15 | 45.96457 | -0.44969 | 33999 ft | 479 kts | 339° |
| 2026-05-07 12:15 | 46.02795 | -0.47862 | 34003 ft | 479 kts | 339° |
| 2026-05-07 12:16 | 46.09162 | -0.50772 | 34002 ft | 479 kts | 339° |
| 2026-05-07 12:16 | 46.15485 | -0.53666 | 34006 ft | 479 kts | 339° |
| 2026-05-07 12:17 | 46.21840 | -0.56582 | 34003 ft | 478 kts | 339° |
| 2026-05-07 12:17 | 46.28194 | -0.59505 | 34009 ft | 478 kts | 339° |
| 2026-05-07 12:18 | 46.34503 | -0.62415 | 34002 ft | 478 kts | 339° |
| 2026-05-07 12:18 | 46.41068 | -0.64165 | 34019 ft | 482 kts | 352° |
| 2026-05-07 12:19 | 46.47781 | -0.65004 | 34001 ft | 483 kts | 352° |
| 2026-05-07 12:19 | 46.54427 | -0.65822 | 34014 ft | 482 kts | 352° |
| 2026-05-07 12:20 | 46.61117 | -0.66721 | 34007 ft | 482 kts | 352° |
| 2026-05-07 12:20 | 46.67795 | -0.67660 | 34009 ft | 481 kts | 352° |
| 2026-05-07 12:21 | 46.74471 | -0.68609 | 34009 ft | 480 kts | 352° |
| 2026-05-07 12:21 | 46.81080 | -0.69548 | 34010 ft | 479 kts | 352° |
| 2026-05-07 12:22 | 46.87718 | -0.70492 | 34015 ft | 479 kts | 352° |
| 2026-05-07 12:22 | 46.94353 | -0.71437 | 34017 ft | 478 kts | 352° |
| 2026-05-07 12:23 | 47.00949 | -0.72379 | 34028 ft | 478 kts | 352° |
| 2026-05-07 12:23 | 47.07583 | -0.73329 | 34016 ft | 478 kts | 352° |
| 2026-05-07 12:24 | 47.14217 | -0.74281 | 34017 ft | 478 kts | 352° |
| 2026-05-07 12:24 | 47.20852 | -0.75235 | 34023 ft | 478 kts | 352° |
| 2026-05-07 12:25 | 47.27444 | -0.76186 | 34018 ft | 479 kts | 352° |
| 2026-05-07 12:25 | 47.34089 | -0.77147 | 34023 ft | 479 kts | 352° |
| 2026-05-07 12:26 | 47.40702 | -0.78105 | 34022 ft | 479 kts | 352° |
| 2026-05-07 12:26 | 47.47357 | -0.79072 | 34021 ft | 479 kts | 352° |
| 2026-05-07 12:27 | 47.53964 | -0.80034 | 34032 ft | 479 kts | 352° |
| 2026-05-07 12:27 | 47.60625 | -0.81007 | 34027 ft | 479 kts | 352° |
| 2026-05-07 12:28 | 47.67219 | -0.81973 | 34030 ft | 479 kts | 352° |
| 2026-05-07 12:28 | 47.73874 | -0.82950 | 34034 ft | 479 kts | 352° |
| 2026-05-07 12:29 | 47.80482 | -0.83922 | 34040 ft | 479 kts | 352° |
| 2026-05-07 12:29 | 47.87131 | -0.84903 | 34044 ft | 479 kts | 352° |
| 2026-05-07 12:30 | 47.93733 | -0.85880 | 34049 ft | 478 kts | 352° |
| 2026-05-07 12:30 | 48.00371 | -0.86864 | 34050 ft | 478 kts | 352° |
| 2026-05-07 12:31 | 48.07011 | -0.87851 | 34050 ft | 478 kts | 352° |
| 2026-05-07 12:31 | 48.13642 | -0.88840 | 34047 ft | 478 kts | 352° |
| 2026-05-07 12:32 | 48.20231 | -0.89825 | 34045 ft | 478 kts | 352° |
| 2026-05-07 12:32 | 48.26877 | -0.90821 | 34038 ft | 478 kts | 352° |
| 2026-05-07 12:33 | 48.36779 | -0.92309 | 34033 ft | 478 kts | 352° |
| 2026-05-07 12:33 | 48.43384 | -0.93305 | 34039 ft | 478 kts | 352° |
| 2026-05-07 12:34 | 48.50009 | -0.94307 | 34037 ft | 478 kts | 352° |
| 2026-05-07 12:34 | 48.56631 | -0.95319 | 34030 ft | 478 kts | 352° |
| 2026-05-07 12:35 | 48.63252 | -0.96322 | 34030 ft | 477 kts | 352° |
| 2026-05-07 12:35 | 48.69833 | -0.97321 | 34036 ft | 477 kts | 352° |
| 2026-05-07 12:36 | 48.76457 | -0.98333 | 34034 ft | 477 kts | 352° |
| 2026-05-07 12:36 | 48.83031 | -0.99341 | 34029 ft | 476 kts | 352° |
| 2026-05-07 12:37 | 48.89638 | -1.00356 | 34038 ft | 476 kts | 352° |
| 2026-05-07 12:37 | 48.96236 | -1.01372 | 34036 ft | 476 kts | 352° |
| 2026-05-07 12:38 | 49.02793 | -1.02385 | 34037 ft | 476 kts | 352° |
| 2026-05-07 12:38 | 49.09400 | -1.03408 | 34031 ft | 476 kts | 352° |
| 2026-05-07 12:39 | 49.15997 | -1.04433 | 34033 ft | 476 kts | 352° |
| 2026-05-07 12:39 | 49.22591 | -1.05459 | 34041 ft | 476 kts | 352° |
| 2026-05-07 12:40 | 49.29148 | -1.06483 | 34036 ft | 476 kts | 352° |
| 2026-05-07 12:40 | 49.35751 | -1.07517 | 34040 ft | 476 kts | 352° |
| 2026-05-07 12:41 | 49.42310 | -1.08546 | 34042 ft | 476 kts | 352° |
| 2026-05-07 12:41 | 49.48926 | -1.09511 | 34043 ft | 476 kts | 356° |
| 2026-05-07 12:42 | 49.52240 | -1.09253 | 34042 ft | 479 kts | 7° |
| 2026-05-07 12:42 | 49.55525 | -1.08396 | 34058 ft | 479 kts | 8° |
| 2026-05-07 12:42 | 49.62050 | -1.06464 | 34047 ft | 480 kts | 9° |
| 2026-05-07 12:43 | 49.68620 | -1.04539 | 34055 ft | 479 kts | 8° |
| 2026-05-07 12:43 | 49.75191 | -1.02691 | 34058 ft | 479 kts | 8° |
| 2026-05-07 12:44 | 49.81728 | -1.00881 | 34056 ft | 479 kts | 8° |
| 2026-05-07 12:44 | 49.88295 | -0.99061 | 34067 ft | 479 kts | 8° |
| 2026-05-07 12:45 | 49.94873 | -0.97229 | 34074 ft | 479 kts | 8° |
| 2026-05-07 12:45 | 50.01410 | -0.95402 | 34069 ft | 479 kts | 8° |
| 2026-05-07 12:46 | 50.08004 | -0.93552 | 34072 ft | 479 kts | 8° |
| 2026-05-07 12:46 | 50.14584 | -0.91703 | 33733 ft | 484 kts | 8° |
| 2026-05-07 12:47 | 50.17849 | -0.90783 | 33209 ft | 478 kts | 8° |
| 2026-05-07 12:47 | 50.21103 | -0.89863 | 32499 ft | 474 kts | 8° |
| 2026-05-07 12:47 | 50.24372 | -0.88939 | 31623 ft | 476 kts | 8° |
| 2026-05-07 12:47 | 50.27631 | -0.88018 | 30896 ft | 475 kts | 8° |
| 2026-05-07 12:48 | 50.30882 | -0.87097 | 30111 ft | 475 kts | 8° |
| 2026-05-07 12:48 | 50.34110 | -0.86181 | 29189 ft | 475 kts | 8° |
| 2026-05-07 12:48 | 50.37351 | -0.85261 | 28322 ft | 474 kts | 8° |
| 2026-05-07 12:48 | 50.40599 | -0.84337 | 27432 ft | 473 kts | 8° |
| 2026-05-07 12:49 | 50.43838 | -0.83414 | 26701 ft | 470 kts | 8° |
| 2026-05-07 12:49 | 50.47042 | -0.82498 | 26055 ft | 465 kts | 8° |
| 2026-05-07 12:49 | 50.50214 | -0.81592 | 25419 ft | 460 kts | 8° |
| 2026-05-07 12:49 | 50.53319 | -0.80703 | 24800 ft | 456 kts | 8° |
| 2026-05-07 12:50 | 50.56427 | -0.79813 | 24187 ft | 452 kts | 8° |
| 2026-05-07 12:50 | 50.59515 | -0.78928 | 23562 ft | 448 kts | 8° |
| 2026-05-07 12:50 | 50.62583 | -0.78104 | 22831 ft | 444 kts | 6° |
| 2026-05-07 12:50 | 50.65640 | -0.77573 | 22190 ft | 439 kts | 3° |
| 2026-05-07 12:51 | 50.68666 | -0.77191 | 21567 ft | 434 kts | 2° |
| 2026-05-07 12:51 | 50.71668 | -0.76831 | 20944 ft | 430 kts | 3° |
| 2026-05-07 12:51 | 50.74613 | -0.76442 | 20347 ft | 426 kts | 4° |
| 2026-05-07 12:51 | 50.77556 | -0.76024 | 19754 ft | 423 kts | 4° |
| 2026-05-07 12:52 | 50.80468 | -0.75479 | 19158 ft | 420 kts | 9° |
| 2026-05-07 12:52 | 50.83285 | -0.74260 | 18707 ft | 416 kts | 20° |
| 2026-05-07 12:52 | 50.85961 | -0.72551 | 18267 ft | 413 kts | 22° |
| 2026-05-07 12:52 | 50.88626 | -0.70786 | 17789 ft | 417 kts | 22° |
| 2026-05-07 12:53 | 50.91311 | -0.69002 | 17324 ft | 418 kts | 22° |
| 2026-05-07 12:53 | 50.93959 | -0.67254 | 16857 ft | 414 kts | 22° |
| 2026-05-07 12:53 | 50.96615 | -0.65516 | 16430 ft | 410 kts | 22° |
| 2026-05-07 12:53 | 50.99222 | -0.63820 | 16007 ft | 406 kts | 22° |
| 2026-05-07 12:54 | 51.01834 | -0.62125 | 15575 ft | 404 kts | 22° |
| 2026-05-07 12:54 | 51.04396 | -0.60464 | 15157 ft | 401 kts | 22° |
| 2026-05-07 12:54 | 51.06981 | -0.58786 | 14742 ft | 399 kts | 22° |
| 2026-05-07 12:54 | 51.09543 | -0.57122 | 14328 ft | 397 kts | 22° |
| 2026-05-07 12:55 | 51.12087 | -0.55466 | 13927 ft | 395 kts | 22° |
| 2026-05-07 12:55 | 51.14630 | -0.53808 | 13473 ft | 393 kts | 22° |
| 2026-05-07 12:55 | 51.17161 | -0.52157 | 13027 ft | 391 kts | 22° |
| 2026-05-07 12:55 | 51.19638 | -0.50540 | 12605 ft | 387 kts | 22° |
| 2026-05-07 12:56 | 51.22121 | -0.48961 | 12152 ft | 379 kts | 19° |
| 2026-05-07 12:56 | 51.24694 | -0.48115 | 11665 ft | 375 kts | 5° |
| 2026-05-07 12:56 | 51.27246 | -0.48062 | 11242 ft | 359 kts | 356° |
| 2026-05-07 12:56 | 51.29697 | -0.48283 | 10873 ft | 345 kts | 356° |
| 2026-05-07 12:57 | 51.32050 | -0.48492 | 10500 ft | 332 kts | 357° |
| 2026-05-07 12:57 | 51.34326 | -0.48684 | 10150 ft | 320 kts | 357° |
| 2026-05-07 12:57 | 51.36475 | -0.48859 | 10008 ft | 303 kts | 357° |
| 2026-05-07 12:57 | 51.38518 | -0.49023 | 9982 ft | 285 kts | 357° |
| 2026-05-07 12:58 | 51.40526 | -0.49181 | 9319 ft | 289 kts | 357° |
| 2026-05-07 12:58 | 51.42516 | -0.49335 | 8904 ft | 284 kts | 357° |
| 2026-05-07 12:58 | 51.43819 | -0.49436 | 8671 ft | 280 kts | 356° |
| 2026-05-07 12:58 | 51.46376 | -0.49635 | 8264 ft | 276 kts | 356° |
| 2026-05-07 12:59 | 51.48298 | -0.49782 | 7959 ft | 276 kts | 356° |
| 2026-05-07 12:59 | 51.50211 | -0.49929 | 7665 ft | 275 kts | 356° |
| 2026-05-07 12:59 | 51.51478 | -0.50027 | 7469 ft | 274 kts | 356° |
| 2026-05-07 12:59 | 51.53387 | -0.50174 | 7178 ft | 274 kts | 356° |
| 2026-05-07 13:00 | 51.55289 | -0.50320 | 6890 ft | 274 kts | 356° |
| 2026-05-07 13:00 | 51.57195 | -0.50467 | 6589 ft | 274 kts | 356° |
| 2026-05-07 13:00 | 51.59102 | -0.50614 | 6257 ft | 274 kts | 356° |
| 2026-05-07 13:00 | 51.60992 | -0.50760 | 5905 ft | 275 kts | 356° |
| 2026-05-07 13:01 | 51.62901 | -0.50908 | 5582 ft | 274 kts | 355° |
| 2026-05-07 13:01 | 51.64805 | -0.51059 | 5330 ft | 275 kts | 356° |
| 2026-05-07 13:01 | 51.66731 | -0.51206 | 4986 ft | 278 kts | 356° |
| 2026-05-07 13:01 | 51.68671 | -0.51354 | 4666 ft | 279 kts | 356° |
| 2026-05-07 13:02 | 51.70606 | -0.51505 | 4331 ft | 275 kts | 356° |
| 2026-05-07 13:02 | 51.72491 | -0.51652 | 4045 ft | 267 kts | 356° |
| 2026-05-07 13:02 | 51.74316 | -0.51792 | 3753 ft | 259 kts | 357° |
| 2026-05-07 13:02 | 51.76075 | -0.51925 | 3582 ft | 247 kts | 357° |
| 2026-05-07 13:03 | 51.77733 | -0.52057 | 3429 ft | 230 kts | 357° |
| 2026-05-07 13:03 | 51.79270 | -0.52178 | 3317 ft | 212 kts | 357° |
| 2026-05-07 13:03 | 51.80697 | -0.52270 | 3154 ft | 198 kts | 3° |
| 2026-05-07 13:03 | 51.82012 | -0.52013 | 2975 ft | 185 kts | 8° |
| 2026-05-07 13:04 | 51.83292 | -0.51749 | 2562 ft | 185 kts | 7° |
| 2026-05-07 13:04 | 51.84521 | -0.51278 | 2163 ft | 180 kts | 32° |
| 2026-05-07 13:04 | 51.85260 | -0.49759 | 1998 ft | 170 kts | 80° |
| 2026-05-07 13:04 | 51.85509 | -0.47836 | 1751 ft | 187 kts | 70° |
| 2026-05-07 13:05 | 51.85966 | -0.45932 | 1511 ft | 180 kts | 84° |
| 2026-05-07 13:05 | 51.86178 | -0.44023 | 1343 ft | 168 kts | 71° |
| 2026-05-07 13:05 | 51.86569 | -0.42348 | 1206 ft | 146 kts | 74° |
| 2026-05-07 13:05 | 51.86775 | -0.40777 | 925 ft | 144 kts | 76° |
| 2026-05-07 13:06 | 51.87046 | -0.39277 | 672 ft | 133 kts | 77° |
| 2026-05-07 13:06 | 51.87290 | -0.37839 | 526 ft | 129 kts | 76° |
| 2026-05-07 13:06 | 51.87530 | -0.36826 | 523 ft | 68 kts | 31° |
| 2026-05-07 13:06 | 51.87763 | -0.36883 | 516 ft | 11 kts | 330° |
| 2026-05-07 13:07 | 51.87861 | -0.36948 | 511 ft | 18 kts | 342° |
| 2026-05-07 13:07 | 51.87972 | -0.37008 | 511 ft | 7 kts | 337° |
| 2026-05-07 13:07 | 51.88018 | -0.37089 | 509 ft | 14 kts | 296° |
| 2026-05-07 13:07 | 51.88041 | -0.37202 | 507 ft | 4 kts | 265° |
| 2026-05-07 13:08 | 51.88041 | -0.37203 | 507 ft | 0 kts | 264° |
| 2026-05-07 13:08 | 51.88075 | -0.37266 | 507 ft | 6 kts | 343° |
| 2026-05-07 13:08 | 51.88093 | -0.37276 | 507 ft | 0 kts | 342° |
| 2026-05-07 13:08 | 51.88101 | -0.37280 | 507 ft | 0 kts | 341° |